»·PEaware :: N75739 KPSP-KONT

N75739 :: KPSP-KONT

FLIGHT INFORMATION

Flight Status: Arrived
Operator: Privately registered:
United States
More flights under this callsign
Pilot: Jacob C. (16006)
Aircraft: ECLIPSE 500
(EA50)
More flights by this aircraft type
Origin: KPSP Palm Springs Intl
United States
Destination: KONT Ontario Intl
United States
More flights between these airports :: More routes between these airports
Route: CATH1 PSP V388 PDZ
File this flight plan on PilotEdge
Remarks:
Altitude:
(Current/Filed)
8,000ft
Speed:
(Current/Filed)
200kts
Departed: 16-Jul-17 04:55 PM
Arrived: 16-Jul-17 05:20 PM
Distance/Time
Traveled:
56nm/0:25
Distance/Time
To Go:
Arrived

Flight Plot

Page will automatically refresh every two minutes.


Map Options




Map Legend


Flown Route
Filed Route
Departure Airport
Arrival Airport
Navaid (VOR, NDB)
Fix

Horizontal Profiles

Position Reports

Time Latitude Longitude Heading Altitude Ground
Speed
16-Jul-17 16:31 33.826629 -116.509366 269 425ft 0kts
16-Jul-17 16:32 33.826629 -116.509366 269 425ft 0kts
16-Jul-17 16:33 33.826629 -116.509366 269 425ft 0kts
16-Jul-17 16:34 33.826629 -116.509366 269 425ft 0kts
16-Jul-17 16:35 33.826629 -116.509366 269 425ft 0kts
16-Jul-17 16:36 33.826629 -116.509366 269 425ft 0kts
16-Jul-17 16:37 33.826629 -116.509366 269 425ft 0kts
16-Jul-17 16:38 33.826629 -116.509366 269 425ft 0kts
16-Jul-17 16:39 33.826629 -116.509366 269 425ft 0kts
16-Jul-17 16:40 33.826629 -116.509366 269 425ft 0kts
16-Jul-17 16:41 33.826629 -116.509366 269 425ft 0kts
16-Jul-17 16:42 33.826629 -116.509366 269 425ft 0kts
16-Jul-17 16:43 33.826629 -116.509366 269 425ft 0kts
16-Jul-17 16:44 33.826629 -116.509366 269 425ft 0kts
16-Jul-17 16:45 33.826629 -116.509366 269 425ft 0kts
16-Jul-17 16:46 33.826629 -116.509366 269 425ft 0kts
16-Jul-17 16:47 33.826629 -116.509366 269 425ft 0kts
16-Jul-17 16:48 33.826629 -116.509366 269 425ft 0kts
16-Jul-17 16:49 33.826629 -116.509366 269 425ft 0kts
16-Jul-17 16:50 33.826629 -116.509366 269 425ft 0kts
16-Jul-17 16:51 33.826554 -116.509085 155 425ft 12kts
16-Jul-17 16:52 33.825893 -116.507633 94 425ft 0kts
16-Jul-17 16:53 33.825893 -116.507633 94 425ft 0kts
16-Jul-17 16:54 33.824058 -116.504716 141 425ft 31kts
16-Jul-17 16:55 33.820286 -116.501364 142 425ft 15kts
16-Jul-17 16:56 33.818528 -116.498930 90 425ft 0kts
16-Jul-17 16:57 33.818560 -116.498582 72 425ft 12kts
16-Jul-17 16:58 33.836155 -116.513935 321 736ft 168kts
16-Jul-17 16:59 33.875109 -116.555611 321 2450ft 197kts
16-Jul-17 17:00 33.920328 -116.583235 33 4386ft 194kts
16-Jul-17 17:01 33.930344 -116.523855 89 6075ft 194kts
16-Jul-17 17:02 33.929745 -116.457039 118 6996ft 220kts
16-Jul-17 17:03 33.889466 -116.403606 131 8083ft 201kts
16-Jul-17 17:04 33.848505 -116.396027 254 9361ft 206kts
16-Jul-17 17:05 33.868816 -116.452483 292 11139ft 199kts
16-Jul-17 17:06 33.891434 -116.524389 289 12004ft 283kts
16-Jul-17 17:07 33.918329 -116.622746 287 12001ft 332kts
16-Jul-17 17:08 33.945134 -116.728235 281 12310ft 340kts
16-Jul-17 17:09 33.944578 -116.840740 267 12654ft 342kts
16-Jul-17 17:10 33.941537 -116.942911 267 11624ft 266kts
16-Jul-17 17:11 33.950784 -117.018125 301 10629ft 237kts
16-Jul-17 17:12 33.984029 -117.084952 301 9636ft 234kts
16-Jul-17 17:13 34.016326 -117.151140 301 8644ft 230kts
16-Jul-17 17:14 34.035006 -117.218125 281 7517ft 203kts
16-Jul-17 17:15 34.044612 -117.283214 281 6018ft 195kts
16-Jul-17 17:16 34.051306 -117.344508 277 4857ft 177kts
16-Jul-17 17:17 34.057240 -117.399926 266 3861ft 158kts
16-Jul-17 17:18 34.055434 -117.448149 269 3129ft 135kts
16-Jul-17 17:19 34.055050 -117.490645 269 2444ft 119kts
16-Jul-17 17:20 34.054980 -117.524082 269 1902ft 85kts
16-Jul-17 17:21 34.054958 -117.550311 270 1497ft 82kts
16-Jul-17 17:22 34.054959 -117.576222 270 1094ft 78kts
16-Jul-17 17:23 34.054868 -117.593852 241 939ft 10kts
16-Jul-17 17:24 34.054293 -117.594530 226 939ft 0kts
16-Jul-17 17:25 34.053873 -117.601283 269 939ft 14kts
16-Jul-17 17:26 34.052533 -117.601095 156 939ft 0kts

Navigation Log

Ident Type
Flight plan parsing failed, navigation log unavailable